sensor_id;sensor_type;location;lat;lon;timestamp;temperature;humidity
1958;DHT22;979;51.076;13.748;2023-01-06T00:02:19;10.70;75.50
1958;DHT22;979;51.076;13.748;2023-01-06T00:04:49;10.70;74.80
1958;DHT22;979;51.076;13.748;2023-01-06T00:07:18;10.70;74.80
1958;DHT22;979;51.076;13.748;2023-01-06T00:09:46;10.70;74.80
1958;DHT22;979;51.076;13.748;2023-01-06T00:12:14;10.70;74.80
1958;DHT22;979;51.076;13.748;2023-01-06T00:14:43;10.80;74.90
1958;DHT22;979;51.076;13.748;2023-01-06T00:17:13;10.80;74.80
1958;DHT22;979;51.076;13.748;2023-01-06T00:19:41;10.80;74.80
1958;DHT22;979;51.076;13.748;2023-01-06T00:22:11;10.80;74.90
1958;DHT22;979;51.076;13.748;2023-01-06T00:24:40;10.80;75.00
1958;DHT22;979;51.076;13.748;2023-01-06T00:27:08;10.80;75.00
1958;DHT22;979;51.076;13.748;2023-01-06T00:29:37;10.80;75.00
1958;DHT22;979;51.076;13.748;2023-01-06T00:32:05;10.80;75.00
1958;DHT22;979;51.076;13.748;2023-01-06T00:34:34;10.80;75.10
1958;DHT22;979;51.076;13.748;2023-01-06T00:37:02;10.80;75.00
1958;DHT22;979;51.076;13.748;2023-01-06T00:39:33;10.80;75.00
1958;DHT22;979;51.076;13.748;2023-01-06T00:42:04;10.80;75.00
1958;DHT22;979;51.076;13.748;2023-01-06T00:44:35;10.80;75.00
1958;DHT22;979;51.076;13.748;2023-01-06T00:47:06;10.80;75.10
1958;DHT22;979;51.076;13.748;2023-01-06T00:49:35;10.80;74.90
1958;DHT22;979;51.076;13.748;2023-01-06T00:52:05;10.70;74.90
1958;DHT22;979;51.076;13.748;2023-01-06T00:54:34;10.70;75.10
1958;DHT22;979;51.076;13.748;2023-01-06T00:57:05;10.70;75.10
1958;DHT22;979;51.076;13.748;2023-01-06T00:59:34;10.70;75.30
1958;DHT22;979;51.076;13.748;2023-01-06T01:02:02;10.70;75.40
1958;DHT22;979;51.076;13.748;2023-01-06T01:04:31;10.60;75.40
1958;DHT22;979;51.076;13.748;2023-01-06T01:06:59;10.60;75.30
1958;DHT22;979;51.076;13.748;2023-01-06T01:09:29;10.50;75.30
1958;DHT22;979;51.076;13.748;2023-01-06T01:11:59;10.60;75.50
1958;DHT22;979;51.076;13.748;2023-01-06T01:14:40;10.50;75.50
1958;DHT22;979;51.076;13.748;2023-01-06T01:17:10;10.50;75.40
1958;DHT22;979;51.076;13.748;2023-01-06T01:19:38;10.50;75.50
1958;DHT22;979;51.076;13.748;2023-01-06T01:22:07;10.50;75.50
1958;DHT22;979;51.076;13.748;2023-01-06T01:24:36;10.50;75.60
1958;DHT22;979;51.076;13.748;2023-01-06T01:27:07;10.50;75.60
1958;DHT22;979;51.076;13.748;2023-01-06T01:29:35;10.50;75.70
1958;DHT22;979;51.076;13.748;2023-01-06T01:32:04;10.50;75.80
1958;DHT22;979;51.076;13.748;2023-01-06T01:34:33;10.50;75.80
1958;DHT22;979;51.076;13.748;2023-01-06T01:37:02;10.40;75.80
1958;DHT22;979;51.076;13.748;2023-01-06T01:39:30;10.50;76.00
1958;DHT22;979;51.076;13.748;2023-01-06T01:41:59;10.50;76.00
1958;DHT22;979;51.076;13.748;2023-01-06T01:44:55;10.40;75.90
1958;DHT22;979;51.076;13.748;2023-01-06T01:47:32;10.40;76.00
1958;DHT22;979;51.076;13.748;2023-01-06T01:50:06;10.40;76.00
1958;DHT22;979;51.076;13.748;2023-01-06T01:52:35;10.40;76.00
1958;DHT22;979;51.076;13.748;2023-01-06T01:55:05;10.30;75.90
1958;DHT22;979;51.076;13.748;2023-01-06T01:57:39;10.30;75.90
1958;DHT22;979;51.076;13.748;2023-01-06T02:00:10;10.30;76.10
1958;DHT22;979;51.076;13.748;2023-01-06T02:02:41;10.20;76.10
1958;DHT22;979;51.076;13.748;2023-01-06T02:05:13;10.10;76.00
1958;DHT22;979;51.076;13.748;2023-01-06T02:07:46;10.20;76.10
1958;DHT22;979;51.076;13.748;2023-01-06T02:10:17;10.20;76.40
1958;DHT22;979;51.076;13.748;2023-01-06T02:12:51;10.20;76.20
1958;DHT22;979;51.076;13.748;2023-01-06T02:15:25;10.10;76.10
1958;DHT22;979;51.076;13.748;2023-01-06T02:18:24;10.10;76.30
1958;DHT22;979;51.076;13.748;2023-01-06T02:21:12;10.10;76.20
1958;DHT22;979;51.076;13.748;2023-01-06T02:23:58;10.10;76.30
1958;DHT22;979;51.076;13.748;2023-01-06T02:33:17;10.00;76.30
1958;DHT22;979;51.076;13.748;2023-01-06T02:36:07;10.00;76.20
1958;DHT22;979;51.076;13.748;2023-01-06T02:38:52;10.00;76.30
1958;DHT22;979;51.076;13.748;2023-01-06T02:41:30;10.00;76.30
1958;DHT22;979;51.076;13.748;2023-01-06T02:44:05;10.00;76.50
1958;DHT22;979;51.076;13.748;2023-01-06T02:46:57;10.00;76.50
1958;DHT22;979;51.076;13.748;2023-01-06T02:49:43;10.00;76.50
1958;DHT22;979;51.076;13.748;2023-01-06T02:52:30;10.00;76.50
1958;DHT22;979;51.076;13.748;2023-01-06T02:55:05;10.00;76.60
1958;DHT22;979;51.076;13.748;2023-01-06T02:57:40;10.00;76.60
1958;DHT22;979;51.076;13.748;2023-01-06T03:00:15;10.10;76.70
1958;DHT22;979;51.076;13.748;2023-01-06T03:02:52;10.00;76.50
1958;DHT22;979;51.076;13.748;2023-01-06T03:05:23;10.10;76.60
1958;DHT22;979;51.076;13.748;2023-01-06T03:07:54;10.10;76.60
1958;DHT22;979;51.076;13.748;2023-01-06T03:10:25;10.10;76.60
1958;DHT22;979;51.076;13.748;2023-01-06T03:13:00;10.10;76.70
1958;DHT22;979;51.076;13.748;2023-01-06T03:15:32;10.00;76.60
1958;DHT22;979;51.076;13.748;2023-01-06T03:18:01;10.00;76.90
1958;DHT22;979;51.076;13.748;2023-01-06T03:20:33;10.00;76.70
1958;DHT22;979;51.076;13.748;2023-01-06T03:23:02;9.90;77.90
1958;DHT22;979;51.076;13.748;2023-01-06T03:25:31;10.00;76.90
1958;DHT22;979;51.076;13.748;2023-01-06T03:28:00;9.90;78.00
1958;DHT22;979;51.076;13.748;2023-01-06T03:30:39;9.90;78.00
1958;DHT22;979;51.076;13.748;2023-01-06T03:33:15;10.10;77.00
1958;DHT22;979;51.076;13.748;2023-01-06T03:35:59;10.00;76.90
1958;DHT22;979;51.076;13.748;2023-01-06T03:38:40;10.00;76.90
1958;DHT22;979;51.076;13.748;2023-01-06T03:41:21;10.00;76.90
1958;DHT22;979;51.076;13.748;2023-01-06T03:44:17;10.00;76.90
1958;DHT22;979;51.076;13.748;2023-01-06T03:46:53;10.00;76.80
1958;DHT22;979;51.076;13.748;2023-01-06T03:49:26;10.10;77.00
1958;DHT22;979;51.076;13.748;2023-01-06T03:52:04;10.00;76.80
1958;DHT22;979;51.076;13.748;2023-01-06T03:54:40;10.00;76.80
1958;DHT22;979;51.076;13.748;2023-01-06T03:57:12;10.00;76.90
1958;DHT22;979;51.076;13.748;2023-01-06T03:59:45;10.00;76.90
1958;DHT22;979;51.076;13.748;2023-01-06T04:02:18;10.00;76.90
1958;DHT22;979;51.076;13.748;2023-01-06T04:05:04;10.00;76.80
1958;DHT22;979;51.076;13.748;2023-01-06T04:07:37;10.00;76.80
1958;DHT22;979;51.076;13.748;2023-01-06T04:10:08;10.00;76.90
1958;DHT22;979;51.076;13.748;2023-01-06T04:12:38;10.00;76.90
1958;DHT22;979;51.076;13.748;2023-01-06T04:15:10;10.10;77.10
1958;DHT22;979;51.076;13.748;2023-01-06T04:17:39;10.10;76.90
1958;DHT22;979;51.076;13.748;2023-01-06T04:20:12;10.10;76.90
1958;DHT22;979;51.076;13.748;2023-01-06T04:22:43;10.30;77.10
1958;DHT22;979;51.076;13.748;2023-01-06T04:25:12;10.10;76.90
1958;DHT22;979;51.076;13.748;2023-01-06T04:27:42;10.10;76.90
1958;DHT22;979;51.076;13.748;2023-01-06T04:30:11;10.00;76.60
1958;DHT22;979;51.076;13.748;2023-01-06T04:32:40;10.00;76.90
1958;DHT22;979;51.076;13.748;2023-01-06T04:35:09;10.00;76.70
1958;DHT22;979;51.076;13.748;2023-01-06T04:37:38;10.00;76.80
1958;DHT22;979;51.076;13.748;2023-01-06T04:40:09;10.00;76.70
1958;DHT22;979;51.076;13.748;2023-01-06T04:42:40;10.00;76.70
1958;DHT22;979;51.076;13.748;2023-01-06T04:45:25;10.10;76.90
1958;DHT22;979;51.076;13.748;2023-01-06T04:47:56;10.00;76.70
1958;DHT22;979;51.076;13.748;2023-01-06T04:50:25;10.00;76.80
1958;DHT22;979;51.076;13.748;2023-01-06T04:52:53;10.00;76.80
1958;DHT22;979;51.076;13.748;2023-01-06T04:55:24;10.00;76.80
1958;DHT22;979;51.076;13.748;2023-01-06T04:57:52;10.10;76.90
1958;DHT22;979;51.076;13.748;2023-01-06T05:00:21;10.20;76.90
1958;DHT22;979;51.076;13.748;2023-01-06T05:02:50;10.10;76.80
1958;DHT22;979;51.076;13.748;2023-01-06T05:05:18;10.10;76.90
1958;DHT22;979;51.076;13.748;2023-01-06T05:07:46;10.10;76.90
1958;DHT22;979;51.076;13.748;2023-01-06T05:10:15;10.10;76.70
1958;DHT22;979;51.076;13.748;2023-01-06T05:12:45;10.10;76.80
1958;DHT22;979;51.076;13.748;2023-01-06T05:15:14;10.10;76.90
1958;DHT22;979;51.076;13.748;2023-01-06T05:17:48;10.10;77.00
1958;DHT22;979;51.076;13.748;2023-01-06T05:20:33;10.10;77.00
1958;DHT22;979;51.076;13.748;2023-01-06T05:23:03;10.10;76.90
1958;DHT22;979;51.076;13.748;2023-01-06T05:25:32;10.10;76.90
1958;DHT22;979;51.076;13.748;2023-01-06T05:28:02;10.10;76.90
1958;DHT22;979;51.076;13.748;2023-01-06T05:30:31;10.10;76.90
1958;DHT22;979;51.076;13.748;2023-01-06T05:32:59;10.10;76.80
1958;DHT22;979;51.076;13.748;2023-01-06T05:35:28;10.20;77.10
1958;DHT22;979;51.076;13.748;2023-01-06T05:37:57;10.20;77.00
1958;DHT22;979;51.076;13.748;2023-01-06T05:40:26;10.10;76.90
1958;DHT22;979;51.076;13.748;2023-01-06T05:42:55;10.20;77.00
1958;DHT22;979;51.076;13.748;2023-01-06T05:48:52;10.00;76.80
1958;DHT22;979;51.076;13.748;2023-01-06T05:51:21;10.20;77.30
1958;DHT22;979;51.076;13.748;2023-01-06T05:53:50;10.20;77.30
1958;DHT22;979;51.076;13.748;2023-01-06T05:56:20;10.20;77.30
1958;DHT22;979;51.076;13.748;2023-01-06T05:58:50;10.10;77.20
1958;DHT22;979;51.076;13.748;2023-01-06T06:01:20;10.10;77.20
1958;DHT22;979;51.076;13.748;2023-01-06T06:03:50;10.10;77.40
1958;DHT22;979;51.076;13.748;2023-01-06T06:06:21;10.10;77.40
1958;DHT22;979;51.076;13.748;2023-01-06T06:08:50;10.10;77.50
1958;DHT22;979;51.076;13.748;2023-01-06T06:11:19;10.10;77.60
1958;DHT22;979;51.076;13.748;2023-01-06T06:13:49;10.20;77.90
1958;DHT22;979;51.076;13.748;2023-01-06T06:16:19;10.20;77.70
1958;DHT22;979;51.076;13.748;2023-01-06T06:18:50;10.20;77.80
1958;DHT22;979;51.076;13.748;2023-01-06T06:21:21;10.20;77.90
1958;DHT22;979;51.076;13.748;2023-01-06T06:23:52;10.20;77.90
1958;DHT22;979;51.076;13.748;2023-01-06T06:26:21;10.20;77.90
1958;DHT22;979;51.076;13.748;2023-01-06T06:28:52;10.20;78.00
1958;DHT22;979;51.076;13.748;2023-01-06T06:31:22;10.20;78.00
1958;DHT22;979;51.076;13.748;2023-01-06T06:33:51;10.10;78.20
1958;DHT22;979;51.076;13.748;2023-01-06T06:36:21;10.30;78.40
1958;DHT22;979;51.076;13.748;2023-01-06T06:38:53;10.30;78.50
1958;DHT22;979;51.076;13.748;2023-01-06T06:41:24;10.40;78.60
1958;DHT22;979;51.076;13.748;2023-01-06T06:43:53;10.40;78.60
1958;DHT22;979;51.076;13.748;2023-01-06T06:46:22;10.50;78.80
1958;DHT22;979;51.076;13.748;2023-01-06T06:48:50;10.50;79.00
1958;DHT22;979;51.076;13.748;2023-01-06T06:51:22;10.60;79.00
1958;DHT22;979;51.076;13.748;2023-01-06T06:53:50;10.60;78.80
1958;DHT22;979;51.076;13.748;2023-01-06T06:56:19;10.60;78.90
1958;DHT22;979;51.076;13.748;2023-01-06T06:58:48;10.60;78.70
1958;DHT22;979;51.076;13.748;2023-01-06T07:01:18;10.60;78.80
1958;DHT22;979;51.076;13.748;2023-01-06T07:03:47;10.60;78.90
1958;DHT22;979;51.076;13.748;2023-01-06T07:06:18;10.60;79.10
1958;DHT22;979;51.076;13.748;2023-01-06T07:08:49;10.60;79.10
1958;DHT22;979;51.076;13.748;2023-01-06T07:11:18;10.60;79.10
1958;DHT22;979;51.076;13.748;2023-01-06T07:13:46;10.60;79.30
1958;DHT22;979;51.076;13.748;2023-01-06T07:16:14;10.60;79.30
1958;DHT22;979;51.076;13.748;2023-01-06T07:18:44;10.60;79.10
1958;DHT22;979;51.076;13.748;2023-01-06T07:21:12;10.60;79.10
1958;DHT22;979;51.076;13.748;2023-01-06T07:23:41;10.60;79.10
1958;DHT22;979;51.076;13.748;2023-01-06T07:26:10;10.60;79.20
1958;DHT22;979;51.076;13.748;2023-01-06T07:28:41;10.60;79.30
1958;DHT22;979;51.076;13.748;2023-01-06T07:31:09;10.60;79.40
1958;DHT22;979;51.076;13.748;2023-01-06T07:33:37;10.70;79.40
1958;DHT22;979;51.076;13.748;2023-01-06T07:36:07;10.60;79.20
1958;DHT22;979;51.076;13.748;2023-01-06T07:38:35;10.70;79.20
1958;DHT22;979;51.076;13.748;2023-01-06T07:41:04;10.70;79.30
1958;DHT22;979;51.076;13.748;2023-01-06T07:43:35;10.70;79.40
1958;DHT22;979;51.076;13.748;2023-01-06T07:46:04;10.70;79.40
1958;DHT22;979;51.076;13.748;2023-01-06T07:48:32;10.70;79.40
1958;DHT22;979;51.076;13.748;2023-01-06T07:51:01;10.80;79.60
1958;DHT22;979;51.076;13.748;2023-01-06T07:53:30;10.70;79.50
1958;DHT22;979;51.076;13.748;2023-01-06T07:55:58;10.80;79.60
1958;DHT22;979;51.076;13.748;2023-01-06T08:12:50;10.90;79.70
1958;DHT22;979;51.076;13.748;2023-01-06T08:16:32;11.20;79.80
1958;DHT22;979;51.076;13.748;2023-01-06T08:19:42;11.00;79.60
1958;DHT22;979;51.076;13.748;2023-01-06T08:22:25;11.10;79.90
1958;DHT22;979;51.076;13.748;2023-01-06T08:24:56;11.10;79.80
1958;DHT22;979;51.076;13.748;2023-01-06T08:38:51;11.20;79.80
1958;DHT22;979;51.076;13.748;2023-01-06T08:41:19;11.20;79.90
1958;DHT22;979;51.076;13.748;2023-01-06T08:43:49;11.10;79.90
1958;DHT22;979;51.076;13.748;2023-01-06T08:46:22;11.10;80.20
1958;DHT22;979;51.076;13.748;2023-01-06T08:48:55;11.10;80.20
1958;DHT22;979;51.076;13.748;2023-01-06T08:51:25;11.10;80.20
1958;DHT22;979;51.076;13.748;2023-01-06T08:54:03;11.10;80.40
1958;DHT22;979;51.076;13.748;2023-01-06T08:56:32;11.20;80.90
1958;DHT22;979;51.076;13.748;2023-01-06T08:59:03;11.30;81.20
1958;DHT22;979;51.076;13.748;2023-01-06T09:01:33;11.40;81.40
1958;DHT22;979;51.076;13.748;2023-01-06T09:04:06;11.60;81.30
1958;DHT22;979;51.076;13.748;2023-01-06T09:06:36;11.80;81.30
1958;DHT22;979;51.076;13.748;2023-01-06T09:09:07;11.90;81.40
1958;DHT22;979;51.076;13.748;2023-01-06T09:11:40;12.00;81.50
1958;DHT22;979;51.076;13.748;2023-01-06T09:14:15;12.10;81.30
1958;DHT22;979;51.076;13.748;2023-01-06T09:16:44;12.20;81.40
1958;DHT22;979;51.076;13.748;2023-01-06T09:19:14;12.30;81.50
1958;DHT22;979;51.076;13.748;2023-01-06T09:21:44;12.40;81.40
1958;DHT22;979;51.076;13.748;2023-01-06T09:24:17;12.40;81.50
1958;DHT22;979;51.076;13.748;2023-01-06T09:26:47;12.50;81.60
1958;DHT22;979;51.076;13.748;2023-01-06T09:29:19;12.60;81.30
1958;DHT22;979;51.076;13.748;2023-01-06T09:31:48;12.60;81.10
1958;DHT22;979;51.076;13.748;2023-01-06T09:34:18;12.70;81.30
1958;DHT22;979;51.076;13.748;2023-01-06T09:36:48;12.70;81.10
1958;DHT22;979;51.076;13.748;2023-01-06T09:39:20;12.80;81.20
1958;DHT22;979;51.076;13.748;2023-01-06T09:42:15;12.90;81.20
1958;DHT22;979;51.076;13.748;2023-01-06T09:44:49;12.90;80.90
1958;DHT22;979;51.076;13.748;2023-01-06T09:47:25;12.80;80.80
1958;DHT22;979;51.076;13.748;2023-01-06T09:50:02;12.90;80.80
1958;DHT22;979;51.076;13.748;2023-01-06T09:52:36;12.90;80.50
1958;DHT22;979;51.076;13.748;2023-01-06T09:55:14;12.90;80.60
1958;DHT22;979;51.076;13.748;2023-01-06T09:57:49;12.90;80.60
1958;DHT22;979;51.076;13.748;2023-01-06T10:00:26;12.90;80.80
1958;DHT22;979;51.076;13.748;2023-01-06T10:02:58;13.00;80.90
1958;DHT22;979;51.076;13.748;2023-01-06T10:05:37;13.00;81.00
1958;DHT22;979;51.076;13.748;2023-01-06T10:08:27;13.10;80.70
1958;DHT22;979;51.076;13.748;2023-01-06T10:11:09;13.10;80.60
1958;DHT22;979;51.076;13.748;2023-01-06T10:13:54;13.10;80.60
1958;DHT22;979;51.076;13.748;2023-01-06T10:16:31;13.20;80.60
1958;DHT22;979;51.076;13.748;2023-01-06T10:19:11;13.30;80.70
1958;DHT22;979;51.076;13.748;2023-01-06T10:21:52;13.30;80.60
1958;DHT22;979;51.076;13.748;2023-01-06T10:24:52;13.30;80.70
1958;DHT22;979;51.076;13.748;2023-01-06T10:27:34;13.40;80.70
1958;DHT22;979;51.076;13.748;2023-01-06T10:30:13;13.30;80.50
1958;DHT22;979;51.076;13.748;2023-01-06T10:32:44;13.50;80.60
1958;DHT22;979;51.076;13.748;2023-01-06T10:35:15;13.50;80.60
1958;DHT22;979;51.076;13.748;2023-01-06T10:37:50;13.50;80.50
1958;DHT22;979;51.076;13.748;2023-01-06T10:40:22;13.60;80.60
1958;DHT22;979;51.076;13.748;2023-01-06T10:42:59;13.60;80.40
1958;DHT22;979;51.076;13.748;2023-01-06T10:45:35;13.70;80.50
1958;DHT22;979;51.076;13.748;2023-01-06T10:48:09;13.70;80.60
1958;DHT22;979;51.076;13.748;2023-01-06T10:51:03;13.70;80.40
1958;DHT22;979;51.076;13.748;2023-01-06T10:53:37;13.70;80.20
1958;DHT22;979;51.076;13.748;2023-01-06T10:56:12;13.80;80.50
1958;DHT22;979;51.076;13.748;2023-01-06T10:59:04;13.80;80.50
1958;DHT22;979;51.076;13.748;2023-01-06T11:01:52;13.80;80.10
1958;DHT22;979;51.076;13.748;2023-01-06T11:04:30;13.80;80.40
1958;DHT22;979;51.076;13.748;2023-01-06T11:07:01;13.90;80.30
1958;DHT22;979;51.076;13.748;2023-01-06T11:09:38;13.90;80.30
1958;DHT22;979;51.076;13.748;2023-01-06T11:12:26;13.80;80.10
1958;DHT22;979;51.076;13.748;2023-01-06T11:18:54;14.20;80.00
1958;DHT22;979;51.076;13.748;2023-01-06T11:21:45;14.20;79.90
1958;DHT22;979;51.076;13.748;2023-01-06T11:24:32;14.20;80.20
1958;DHT22;979;51.076;13.748;2023-01-06T11:27:24;14.30;80.10
1958;DHT22;979;51.076;13.748;2023-01-06T11:30:20;14.40;80.40
1958;DHT22;979;51.076;13.748;2023-01-06T11:32:57;14.40;79.90
1958;DHT22;979;51.076;13.748;2023-01-06T11:35:36;14.50;80.20
1958;DHT22;979;51.076;13.748;2023-01-06T11:38:18;14.50;79.90
1958;DHT22;979;51.076;13.748;2023-01-06T11:41:07;14.80;79.20
1958;DHT22;979;51.076;13.748;2023-01-06T11:43:44;14.60;78.90
1958;DHT22;979;51.076;13.748;2023-01-06T11:46:31;14.50;78.80
1958;DHT22;979;51.076;13.748;2023-01-06T11:49:05;14.50;78.30
1958;DHT22;979;51.076;13.748;2023-01-06T11:52:04;14.50;78.60
1958;DHT22;979;51.076;13.748;2023-01-06T11:54:47;14.50;77.60
1958;DHT22;979;51.076;13.748;2023-01-06T11:58:17;14.60;77.40
1958;DHT22;979;51.076;13.748;2023-01-06T12:01:07;14.50;77.00
1958;DHT22;979;51.076;13.748;2023-01-06T12:35:53;13.00;78.60
1958;DHT22;979;51.076;13.748;2023-01-06T12:38:41;13.00;78.80
1958;DHT22;979;51.076;13.748;2023-01-06T12:41:46;13.00;78.80
1958;DHT22;979;51.076;13.748;2023-01-06T12:44:49;13.10;79.00
1958;DHT22;979;51.076;13.748;2023-01-06T12:48:00;13.10;78.90
1958;DHT22;979;51.076;13.748;2023-01-06T12:51:00;13.10;78.80
1958;DHT22;979;51.076;13.748;2023-01-06T12:54:02;13.20;78.60
1958;DHT22;979;51.076;13.748;2023-01-06T12:56:56;13.20;78.30
1958;DHT22;979;51.076;13.748;2023-01-06T13:03:17;13.40;78.00
1958;DHT22;979;51.076;13.748;2023-01-06T13:27:53;13.90;75.50
1958;DHT22;979;51.076;13.748;2023-01-06T13:39:37;14.30;74.40
1958;DHT22;979;51.076;13.748;2023-01-06T13:46:34;14.60;73.80
1958;DHT22;979;51.076;13.748;2023-01-06T13:49:09;14.60;73.30
1958;DHT22;979;51.076;13.748;2023-01-06T13:51:53;14.60;72.90
1958;DHT22;979;51.076;13.748;2023-01-06T13:55:20;14.80;73.20
1958;DHT22;979;51.076;13.748;2023-01-06T13:58:34;14.70;71.70
1958;DHT22;979;51.076;13.748;2023-01-06T15:17:10;14.00;70.70
1958;DHT22;979;51.076;13.748;2023-01-06T15:19:51;13.90;70.80
1958;DHT22;979;51.076;13.748;2023-01-06T15:22:32;13.90;71.00
1958;DHT22;979;51.076;13.748;2023-01-06T15:25:20;13.90;71.00
1958;DHT22;979;51.076;13.748;2023-01-06T15:28:26;13.80;70.90
1958;DHT22;979;51.076;13.748;2023-01-06T15:31:19;13.70;71.30
1958;DHT22;979;51.076;13.748;2023-01-06T15:34:19;13.60;71.10
1958;DHT22;979;51.076;13.748;2023-01-06T15:37:00;13.60;71.30
1958;DHT22;979;51.076;13.748;2023-01-06T15:39:46;13.40;71.10
1958;DHT22;979;51.076;13.748;2023-01-06T15:42:43;13.50;71.60
1958;DHT22;979;51.076;13.748;2023-01-06T15:45:25;13.50;71.30
1958;DHT22;979;51.076;13.748;2023-01-06T15:48:10;13.50;71.40
1958;DHT22;979;51.076;13.748;2023-01-06T15:50:44;13.50;71.60
1958;DHT22;979;51.076;13.748;2023-01-06T15:53:29;13.50;71.90
1958;DHT22;979;51.076;13.748;2023-01-06T15:56:01;13.50;71.50
1958;DHT22;979;51.076;13.748;2023-01-06T15:58:36;13.50;71.60
1958;DHT22;979;51.076;13.748;2023-01-06T16:01:11;13.50;71.30
1958;DHT22;979;51.076;13.748;2023-01-06T16:03:51;13.60;71.20
1958;DHT22;979;51.076;13.748;2023-01-06T16:06:33;13.50;71.00
1958;DHT22;979;51.076;13.748;2023-01-06T16:09:31;13.40;70.90
1958;DHT22;979;51.076;13.748;2023-01-06T16:12:20;13.50;70.70
1958;DHT22;979;51.076;13.748;2023-01-06T16:15:39;13.60;70.90
1958;DHT22;979;51.076;13.748;2023-01-06T16:18:15;13.50;70.50
1958;DHT22;979;51.076;13.748;2023-01-06T16:20:46;13.50;70.80
1958;DHT22;979;51.076;13.748;2023-01-06T16:23:28;13.50;71.00
1958;DHT22;979;51.076;13.748;2023-01-06T16:26:14;13.50;70.60
1958;DHT22;979;51.076;13.748;2023-01-06T16:28:58;13.50;70.80
1958;DHT22;979;51.076;13.748;2023-01-06T16:31:30;13.50;70.70
1958;DHT22;979;51.076;13.748;2023-01-06T16:34:21;13.50;70.50
1958;DHT22;979;51.076;13.748;2023-01-06T16:37:00;13.40;70.60
1958;DHT22;979;51.076;13.748;2023-01-06T16:39:33;13.40;70.60
1958;DHT22;979;51.076;13.748;2023-01-06T16:42:20;13.40;70.90
1958;DHT22;979;51.076;13.748;2023-01-06T16:45:22;13.40;70.90
1958;DHT22;979;51.076;13.748;2023-01-06T16:47:58;13.40;71.10
1958;DHT22;979;51.076;13.748;2023-01-06T16:50:37;13.40;71.40
1958;DHT22;979;51.076;13.748;2023-01-06T16:53:18;13.40;71.30
1958;DHT22;979;51.076;13.748;2023-01-06T17:02:13;13.40;71.40
1958;DHT22;979;51.076;13.748;2023-01-06T17:04:50;13.40;71.80
1958;DHT22;979;51.076;13.748;2023-01-06T17:07:33;13.40;71.80
1958;DHT22;979;51.076;13.748;2023-01-06T17:10:12;13.40;71.90
1958;DHT22;979;51.076;13.748;2023-01-06T17:12:52;13.40;71.60
1958;DHT22;979;51.076;13.748;2023-01-06T17:19:49;13.30;71.30
1958;DHT22;979;51.076;13.748;2023-01-06T17:22:50;13.30;71.40
1958;DHT22;979;51.076;13.748;2023-01-06T17:26:04;13.40;71.50
1958;DHT22;979;51.076;13.748;2023-01-06T17:28:49;13.30;71.60
1958;DHT22;979;51.076;13.748;2023-01-06T17:31:37;13.20;71.50
1958;DHT22;979;51.076;13.748;2023-01-06T17:34:48;13.40;71.90
1958;DHT22;979;51.076;13.748;2023-01-06T17:41:58;13.10;71.40
1958;DHT22;979;51.076;13.748;2023-01-06T17:44:52;13.20;71.60
1958;DHT22;979;51.076;13.748;2023-01-06T17:47:43;13.20;71.90
1958;DHT22;979;51.076;13.748;2023-01-06T17:50:48;13.00;71.50
1958;DHT22;979;51.076;13.748;2023-01-06T17:53:27;12.90;71.60
1958;DHT22;979;51.076;13.748;2023-01-06T17:56:36;12.80;71.70
1958;DHT22;979;51.076;13.748;2023-01-06T17:59:44;12.80;72.00
1958;DHT22;979;51.076;13.748;2023-01-06T18:03:04;12.80;71.90
1958;DHT22;979;51.076;13.748;2023-01-06T18:29:35;12.90;72.30
1958;DHT22;979;51.076;13.748;2023-01-06T18:32:34;12.80;72.00
1958;DHT22;979;51.076;13.748;2023-01-06T18:35:16;13.00;72.20
1958;DHT22;979;51.076;13.748;2023-01-06T18:37:55;13.00;72.60
1958;DHT22;979;51.076;13.748;2023-01-06T18:40:30;13.00;72.60
1958;DHT22;979;51.076;13.748;2023-01-06T18:43:22;13.00;72.60
1958;DHT22;979;51.076;13.748;2023-01-06T18:46:12;12.90;72.20
1958;DHT22;979;51.076;13.748;2023-01-06T18:48:46;12.90;72.50
1958;DHT22;979;51.076;13.748;2023-01-06T18:51:30;12.90;72.20
1958;DHT22;979;51.076;13.748;2023-01-06T18:54:10;12.80;72.20
1958;DHT22;979;51.076;13.748;2023-01-06T18:56:55;12.90;72.30
1958;DHT22;979;51.076;13.748;2023-01-06T18:59:30;12.90;72.30
1958;DHT22;979;51.076;13.748;2023-01-06T19:02:23;12.80;72.30
1958;DHT22;979;51.076;13.748;2023-01-06T19:05:00;13.00;72.40
1958;DHT22;979;51.076;13.748;2023-01-06T19:07:45;12.80;72.50
1958;DHT22;979;51.076;13.748;2023-01-06T19:10:32;12.70;72.50
1958;DHT22;979;51.076;13.748;2023-01-06T19:13:23;12.60;72.40
1958;DHT22;979;51.076;13.748;2023-01-06T19:15:57;12.50;72.30
1958;DHT22;979;51.076;13.748;2023-01-06T19:18:32;12.50;72.50
1958;DHT22;979;51.076;13.748;2023-01-06T19:21:16;12.50;72.70
1958;DHT22;979;51.076;13.748;2023-01-06T19:23:55;12.50;72.50
1958;DHT22;979;51.076;13.748;2023-01-06T19:26:43;12.50;72.80
1958;DHT22;979;51.076;13.748;2023-01-06T19:29:33;12.50;72.70
1958;DHT22;979;51.076;13.748;2023-01-06T19:32:19;12.50;72.80
1958;DHT22;979;51.076;13.748;2023-01-06T19:35:17;12.50;72.50
1958;DHT22;979;51.076;13.748;2023-01-06T19:38:34;12.50;72.80
1958;DHT22;979;51.076;13.748;2023-01-06T19:41:30;12.50;72.40
1958;DHT22;979;51.076;13.748;2023-01-06T19:44:13;12.40;72.40
1958;DHT22;979;51.076;13.748;2023-01-06T19:47:15;12.40;72.30
1958;DHT22;979;51.076;13.748;2023-01-06T19:49:59;12.40;72.20
1958;DHT22;979;51.076;13.748;2023-01-06T19:52:45;12.30;72.50
1958;DHT22;979;51.076;13.748;2023-01-06T19:55:27;12.20;72.10
1958;DHT22;979;51.076;13.748;2023-01-06T19:58:06;12.20;72.30
1958;DHT22;979;51.076;13.748;2023-01-06T20:01:03;12.00;72.40
1958;DHT22;979;51.076;13.748;2023-01-06T20:03:41;12.00;72.30
1958;DHT22;979;51.076;13.748;2023-01-06T20:12:18;11.80;72.50
1958;DHT22;979;51.076;13.748;2023-01-06T20:14:59;11.70;72.90
1958;DHT22;979;51.076;13.748;2023-01-06T20:17:38;11.70;72.60
1958;DHT22;979;51.076;13.748;2023-01-06T20:20:27;11.60;72.90
1958;DHT22;979;51.076;13.748;2023-01-06T20:23:03;11.60;73.10
1958;DHT22;979;51.076;13.748;2023-01-06T20:25:41;11.50;72.70
1958;DHT22;979;51.076;13.748;2023-01-06T20:28:15;11.50;73.20
1958;DHT22;979;51.076;13.748;2023-01-06T20:30:54;11.50;73.20
1958;DHT22;979;51.076;13.748;2023-01-06T20:33:34;11.40;73.00
1958;DHT22;979;51.076;13.748;2023-01-06T20:36:11;11.20;73.30
1958;DHT22;979;51.076;13.748;2023-01-06T20:38:46;11.40;73.50
1958;DHT22;979;51.076;13.748;2023-01-06T20:41:26;11.40;73.30
1958;DHT22;979;51.076;13.748;2023-01-06T20:44:11;11.30;73.30
1958;DHT22;979;51.076;13.748;2023-01-06T20:46:48;11.40;73.50
1958;DHT22;979;51.076;13.748;2023-01-06T20:49:32;11.40;73.40
1958;DHT22;979;51.076;13.748;2023-01-06T20:52:15;11.40;73.20
1958;DHT22;979;51.076;13.748;2023-01-06T20:54:52;11.40;73.40
1958;DHT22;979;51.076;13.748;2023-01-06T20:57:31;11.30;73.40
1958;DHT22;979;51.076;13.748;2023-01-06T21:07:37;11.40;73.10
1958;DHT22;979;51.076;13.748;2023-01-06T21:10:28;11.40;73.20
1958;DHT22;979;51.076;13.748;2023-01-06T21:13:05;11.40;73.30